Terminal Aerodrome Forecast
Issued by NWS Upton, NY

Home | Current Version | Previous Version | Text Only | Print | Product List | Glossary On
Versions: 1 2 3 4 5 6 7 8 9 10 11 12 13 14 15 16 17 18 19 20 21 22 23 24 25 26 27 28 29 30 31
000
FTUS41 KOKX 252040 AAA
TAFBDR
TAF AMD
KBDR 252040Z 2521/2618 04009KT 2SM BR OVC008
     FM252200 VRB05KT 2SM BR OVC009
     FM260000 VRB03KT 1 1/2SM BR BKN010 OVC120
     FM260100 VRB03KT 1SM BR OVC150
     FM260800 33003KT 3SM BR BKN150
     FM261300 30006KT P6SM SCT250
     FM261700 28009KT P6SM FEW250=

USA.gov is the U.S. government's official web portal to all federal, state and local government web resources and services.